sensor_id;sensor_type;location;lat;lon;timestamp;pressure;altitude;pressure_sealevel;temperature;humidity
47530;BME280;33272;51.922;7.730;2022-10-16T00:01:16;100307.91;;;12.81;100.00
47530;BME280;33272;51.922;7.730;2022-10-16T00:03:44;100307.03;;;12.81;100.00
47530;BME280;33272;51.922;7.730;2022-10-16T00:06:15;100315.50;;;12.80;100.00
47530;BME280;33272;51.922;7.730;2022-10-16T00:08:43;100307.63;;;12.76;100.00
47530;BME280;33272;51.922;7.730;2022-10-16T00:11:13;100314.63;;;12.79;100.00
47530;BME280;33272;51.922;7.730;2022-10-16T00:13:43;100311.28;;;12.80;100.00
47530;BME280;33272;51.922;7.730;2022-10-16T00:16:12;100309.59;;;12.81;100.00
47530;BME280;33272;51.922;7.730;2022-10-16T00:18:40;100315.50;;;12.80;100.00
47530;BME280;33272;51.922;7.730;2022-10-16T00:21:11;100312.94;;;12.80;100.00
47530;BME280;33272;51.922;7.730;2022-10-16T00:23:40;100313.75;;;12.79;100.00
47530;BME280;33272;51.922;7.730;2022-10-16T00:26:12;100321.38;;;12.77;100.00
47530;BME280;33272;51.922;7.730;2022-10-16T00:28:40;100314.44;;;12.76;100.00
47530;BME280;33272;51.922;7.730;2022-10-16T00:31:09;100312.56;;;12.73;100.00
47530;BME280;33272;51.922;7.730;2022-10-16T00:33:39;100316.81;;;12.73;100.00
47530;BME280;33272;51.922;7.730;2022-10-16T00:36:10;100313.31;;;12.71;100.00
47530;BME280;33272;51.922;7.730;2022-10-16T00:38:39;100320.03;;;12.69;100.00
47530;BME280;33272;51.922;7.730;2022-10-16T00:41:10;100313.00;;;12.66;100.00
47530;BME280;33272;51.922;7.730;2022-10-16T00:43:41;100316.28;;;12.64;100.00
47530;BME280;33272;51.922;7.730;2022-10-16T00:46:17;100318.09;;;12.65;100.00
47530;BME280;33272;51.922;7.730;2022-10-16T00:48:50;100324.09;;;12.65;100.00
47530;BME280;33272;51.922;7.730;2022-10-16T00:51:23;100323.41;;;12.68;100.00
47530;BME280;33272;51.922;7.730;2022-10-16T00:53:52;100328.59;;;12.69;100.00
47530;BME280;33272;51.922;7.730;2022-10-16T00:56:19;100330.28;;;12.69;100.00
47530;BME280;33272;51.922;7.730;2022-10-16T00:58:46;100331.16;;;12.69;100.00
47530;BME280;33272;51.922;7.730;2022-10-16T01:01:13;100331.16;;;12.69;100.00
47530;BME280;33272;51.922;7.730;2022-10-16T01:03:40;100332.78;;;12.67;100.00
47530;BME280;33272;51.922;7.730;2022-10-16T01:06:23;100328.34;;;12.65;100.00
47530;BME280;33272;51.922;7.730;2022-10-16T01:09:12;100320.34;;;12.60;100.00
47530;BME280;33272;51.922;7.730;2022-10-16T01:11:49;100321.97;;;12.58;100.00
47530;BME280;33272;51.922;7.730;2022-10-16T01:14:37;100320.81;;;12.53;100.00
47530;BME280;33272;51.922;7.730;2022-10-16T01:17:12;100321.59;;;12.52;100.00
47530;BME280;33272;51.922;7.730;2022-10-16T01:20:00;100330.88;;;12.50;100.00
47530;BME280;33272;51.922;7.730;2022-10-16T01:22:38;100329.13;;;12.49;100.00
47530;BME280;33272;51.922;7.730;2022-10-16T01:25:16;100329.81;;;12.46;100.00
47530;BME280;33272;51.922;7.730;2022-10-16T01:27:47;100329.72;;;12.45;100.00
47530;BME280;33272;51.922;7.730;2022-10-16T01:30:21;100321.94;;;12.43;100.00
47530;BME280;33272;51.922;7.730;2022-10-16T01:32:52;100327.06;;;12.43;100.00
47530;BME280;33272;51.922;7.730;2022-10-16T01:35:25;100323.63;;;12.43;100.00
47530;BME280;33272;51.922;7.730;2022-10-16T01:37:58;100324.41;;;12.42;100.00
47530;BME280;33272;51.922;7.730;2022-10-16T01:40:29;100326.00;;;12.40;100.00
47530;BME280;33272;51.922;7.730;2022-10-16T01:43:02;100326.09;;;12.41;100.00
47530;BME280;33272;51.922;7.730;2022-10-16T01:45:32;100325.91;;;12.38;100.00
47530;BME280;33272;51.922;7.730;2022-10-16T01:48:01;100319.81;;;12.36;100.00
47530;BME280;33272;51.922;7.730;2022-10-16T01:50:30;100322.06;;;12.32;100.00
47530;BME280;33272;51.922;7.730;2022-10-16T01:52:58;100321.19;;;12.31;100.00
47530;BME280;33272;51.922;7.730;2022-10-16T01:55:30;100312.31;;;12.26;100.00
47530;BME280;33272;51.922;7.730;2022-10-16T01:58:02;100309.56;;;12.23;100.00
47530;BME280;33272;51.922;7.730;2022-10-16T02:00:31;100311.88;;;12.18;100.00
47530;BME280;33272;51.922;7.730;2022-10-16T02:02:59;100314.34;;;12.17;100.00
47530;BME280;33272;51.922;7.730;2022-10-16T02:05:33;100319.38;;;12.15;100.00
47530;BME280;33272;51.922;7.730;2022-10-16T02:08:02;100328.59;;;12.12;100.00
47530;BME280;33272;51.922;7.730;2022-10-16T02:10:29;100322.47;;;12.10;100.00
47530;BME280;33272;51.922;7.730;2022-10-16T02:13:05;100324.84;;;12.06;100.00
47530;BME280;33272;51.922;7.730;2022-10-16T02:15:33;100321.38;;;12.06;100.00
47530;BME280;33272;51.922;7.730;2022-10-16T02:18:01;100323.25;;;12.09;100.00
47530;BME280;33272;51.922;7.730;2022-10-16T02:20:36;100325.72;;;12.07;100.00
47530;BME280;33272;51.922;7.730;2022-10-16T02:23:07;100331.56;;;12.04;100.00
47530;BME280;33272;51.922;7.730;2022-10-16T02:25:41;100328.03;;;12.02;100.00
47530;BME280;33272;51.922;7.730;2022-10-16T02:28:16;100321.91;;;12.00;100.00
47530;BME280;33272;51.922;7.730;2022-10-16T02:30:49;100330.28;;;11.98;100.00
47530;BME280;33272;51.922;7.730;2022-10-16T02:33:19;100333.75;;;11.98;100.00
47530;BME280;33272;51.922;7.730;2022-10-16T02:35:49;100334.53;;;11.97;100.00
47530;BME280;33272;51.922;7.730;2022-10-16T02:38:18;100333.66;;;11.97;100.00
47530;BME280;33272;51.922;7.730;2022-10-16T02:40:47;100327.56;;;11.95;100.00
47530;BME280;33272;51.922;7.730;2022-10-16T02:43:16;100334.44;;;11.96;100.00
47530;BME280;33272;51.922;7.730;2022-10-16T02:45:43;100323.88;;;11.91;100.00
47530;BME280;33272;51.922;7.730;2022-10-16T02:48:10;100340.88;;;11.89;100.00
47530;BME280;33272;51.922;7.730;2022-10-16T02:50:37;100340.00;;;11.89;100.00
47530;BME280;33272;51.922;7.730;2022-10-16T02:53:04;100340.00;;;11.89;100.00
47530;BME280;33272;51.922;7.730;2022-10-16T02:55:31;100340.97;;;11.91;100.00
47530;BME280;33272;51.922;7.730;2022-10-16T02:57:58;100343.72;;;11.94;100.00
47530;BME280;33272;51.922;7.730;2022-10-16T03:00:26;100342.22;;;11.97;100.00
47530;BME280;33272;51.922;7.730;2022-10-16T03:02:54;100338.09;;;11.99;100.00
47530;BME280;33272;51.922;7.730;2022-10-16T03:05:21;100334.72;;;12.00;100.00
47530;BME280;33272;51.922;7.730;2022-10-16T03:07:48;100336.50;;;12.01;100.00
47530;BME280;33272;51.922;7.730;2022-10-16T03:10:15;100337.66;;;12.06;100.00
47530;BME280;33272;51.922;7.730;2022-10-16T03:12:42;100330.78;;;12.05;100.00
47530;BME280;33272;51.922;7.730;2022-10-16T03:15:09;100332.47;;;12.05;100.00
47530;BME280;33272;51.922;7.730;2022-10-16T03:17:38;100333.53;;;12.09;100.00
47530;BME280;33272;51.922;7.730;2022-10-16T03:20:06;100328.59;;;12.12;100.00
47530;BME280;33272;51.922;7.730;2022-10-16T03:22:33;100337.28;;;12.14;100.00
47530;BME280;33272;51.922;7.730;2022-10-16T03:25:00;100342.56;;;12.17;100.00
47530;BME280;33272;51.922;7.730;2022-10-16T03:27:27;100331.72;;;12.21;100.00
47530;BME280;33272;51.922;7.730;2022-10-16T03:29:54;100338.97;;;12.28;100.00
47530;BME280;33272;51.922;7.730;2022-10-16T03:32:21;100343.50;;;12.32;100.00
47530;BME280;33272;51.922;7.730;2022-10-16T03:34:51;100355.75;;;12.36;100.00
47530;BME280;33272;51.922;7.730;2022-10-16T03:37:19;100344.75;;;12.39;100.00
47530;BME280;33272;51.922;7.730;2022-10-16T03:39:46;100344.03;;;12.41;100.00
47530;BME280;33272;51.922;7.730;2022-10-16T03:42:13;100333.09;;;12.44;100.00
47530;BME280;33272;51.922;7.730;2022-10-16T03:44:40;100339.28;;;12.47;100.00
47530;BME280;33272;51.922;7.730;2022-10-16T03:47:07;100342.03;;;12.50;100.00
47530;BME280;33272;51.922;7.730;2022-10-16T03:49:34;100340.34;;;12.51;100.00
47530;BME280;33272;51.922;7.730;2022-10-16T03:52:03;100332.06;;;12.55;100.00
47530;BME280;33272;51.922;7.730;2022-10-16T03:54:30;100335.50;;;12.56;100.00
47530;BME280;33272;51.922;7.730;2022-10-16T03:56:57;100332.06;;;12.55;100.00
47530;BME280;33272;51.922;7.730;2022-10-16T03:59:24;100337.09;;;12.53;100.00
47530;BME280;33272;51.922;7.730;2022-10-16T04:01:51;100335.31;;;12.52;100.00
47530;BME280;33272;51.922;7.730;2022-10-16T04:04:18;100337.00;;;12.52;100.00
47530;BME280;33272;51.922;7.730;2022-10-16T04:06:45;100340.34;;;12.51;100.00
47530;BME280;33272;51.922;7.730;2022-10-16T04:09:13;100347.16;;;12.50;100.00
47530;BME280;33272;51.922;7.730;2022-10-16T04:11:40;100344.41;;;12.47;100.00
47530;BME280;33272;51.922;7.730;2022-10-16T04:14:07;100353.72;;;12.45;100.00
47530;BME280;33272;51.922;7.730;2022-10-16T04:16:34;100354.59;;;12.46;100.00
47530;BME280;33272;51.922;7.730;2022-10-16T04:19:01;100352.03;;;12.46;100.00
47530;BME280;33272;51.922;7.730;2022-10-16T04:21:29;100353.81;;;12.47;100.00
47530;BME280;33272;51.922;7.730;2022-10-16T04:23:55;100366.56;;;12.45;100.00
47530;BME280;33272;51.922;7.730;2022-10-16T04:26:24;100375.31;;;12.49;100.00
47530;BME280;33272;51.922;7.730;2022-10-16T04:28:51;100375.31;;;12.49;100.00
47530;BME280;33272;51.922;7.730;2022-10-16T04:31:18;100372.06;;;12.51;100.00
47530;BME280;33272;51.922;7.730;2022-10-16T04:33:45;100369.56;;;12.53;100.00
47530;BME280;33272;51.922;7.730;2022-10-16T04:36:12;100375.59;;;12.53;100.00
47530;BME280;33272;51.922;7.730;2022-10-16T04:38:39;100376.59;;;12.56;100.00
47530;BME280;33272;51.922;7.730;2022-10-16T04:41:07;100384.34;;;12.57;100.00
47530;BME280;33272;51.922;7.730;2022-10-16T04:43:36;100390.28;;;12.56;100.00
47530;BME280;33272;51.922;7.730;2022-10-16T04:46:03;100385.16;;;12.56;100.00
47530;BME280;33272;51.922;7.730;2022-10-16T04:48:30;100394.72;;;12.59;100.00
47530;BME280;33272;51.922;7.730;2022-10-16T04:50:58;100397.19;;;12.57;100.00
47530;BME280;33272;51.922;7.730;2022-10-16T04:53:25;100386.22;;;12.60;100.00
47530;BME280;33272;51.922;7.730;2022-10-16T04:55:52;100387.09;;;12.60;100.00
47530;BME280;33272;51.922;7.730;2022-10-16T04:58:19;100390.38;;;12.58;100.00
47530;BME280;33272;51.922;7.730;2022-10-16T05:00:48;100383.66;;;12.60;100.00
47530;BME280;33272;51.922;7.730;2022-10-16T05:03:15;100387.91;;;12.59;100.00
47530;BME280;33272;51.922;7.730;2022-10-16T05:05:43;100389.59;;;12.59;100.00
47530;BME280;33272;51.922;7.730;2022-10-16T05:08:11;100396.50;;;12.60;100.00
47530;BME280;33272;51.922;7.730;2022-10-16T05:10:37;100397.38;;;12.60;100.00
47530;BME280;33272;51.922;7.730;2022-10-16T05:13:04;100398.25;;;12.61;100.00
47530;BME280;33272;51.922;7.730;2022-10-16T05:15:31;100397.50;;;12.62;100.00
47530;BME280;33272;51.922;7.730;2022-10-16T05:18:00;100398.38;;;12.62;100.00
47530;BME280;33272;51.922;7.730;2022-10-16T05:20:27;100406.16;;;12.64;100.00
47530;BME280;33272;51.922;7.730;2022-10-16T05:22:54;100404.50;;;12.64;100.00
47530;BME280;33272;51.922;7.730;2022-10-16T05:25:21;100404.38;;;12.63;100.00
47530;BME280;33272;51.922;7.730;2022-10-16T05:27:48;100407.84;;;12.63;100.00
47530;BME280;33272;51.922;7.730;2022-10-16T05:30:16;100419.09;;;12.65;100.00
47530;BME280;33272;51.922;7.730;2022-10-16T05:32:47;100421.75;;;12.67;100.00
47530;BME280;33272;51.922;7.730;2022-10-16T05:35:17;100429.56;;;12.68;100.00
47530;BME280;33272;51.922;7.730;2022-10-16T05:37:44;100418.47;;;12.69;100.00
47530;BME280;33272;51.922;7.730;2022-10-16T05:40:12;100429.81;;;12.73;100.00
47530;BME280;33272;51.922;7.730;2022-10-16T05:42:40;100434.94;;;12.73;100.00
47530;BME280;33272;51.922;7.730;2022-10-16T05:45:10;100431.63;;;12.74;100.00
47530;BME280;33272;51.922;7.730;2022-10-16T05:47:37;100444.25;;;12.71;100.00
47530;BME280;33272;51.922;7.730;2022-10-16T05:50:04;100434.88;;;12.71;100.00
47530;BME280;33272;51.922;7.730;2022-10-16T05:52:33;100432.19;;;12.70;100.00
47530;BME280;33272;51.922;7.730;2022-10-16T05:55:00;100448.59;;;12.72;100.00
47530;BME280;33272;51.922;7.730;2022-10-16T05:57:27;100447.78;;;12.73;100.00
47530;BME280;33272;51.922;7.730;2022-10-16T05:59:54;100451.25;;;12.73;100.00
47530;BME280;33272;51.922;7.730;2022-10-16T06:02:21;100459.94;;;12.75;100.00
47530;BME280;33272;51.922;7.730;2022-10-16T06:04:48;100459.13;;;12.76;100.00
47530;BME280;33272;51.922;7.730;2022-10-16T06:07:15;100456.66;;;12.78;100.00
47530;BME280;33272;51.922;7.730;2022-10-16T06:09:44;100462.00;;;12.81;100.00
47530;BME280;33272;51.922;7.730;2022-10-16T06:12:11;100466.44;;;12.84;100.00
47530;BME280;33272;51.922;7.730;2022-10-16T06:14:37;100460.50;;;12.85;100.00
47530;BME280;33272;51.922;7.730;2022-10-16T06:17:04;100457.94;;;12.85;100.00
47530;BME280;33272;51.922;7.730;2022-10-16T06:19:31;100464.94;;;12.87;100.00
47530;BME280;33272;51.922;7.730;2022-10-16T06:21:58;100475.28;;;12.89;100.00
47530;BME280;33272;51.922;7.730;2022-10-16T06:24:26;100477.09;;;12.90;100.00
47530;BME280;33272;51.922;7.730;2022-10-16T06:26:54;100485.56;;;12.89;100.00
47530;BME280;33272;51.922;7.730;2022-10-16T06:29:21;100494.34;;;12.92;100.00
47530;BME280;33272;51.922;7.730;2022-10-16T06:31:48;100502.16;;;12.94;100.00
47530;BME280;33272;51.922;7.730;2022-10-16T06:34:15;100504.22;;;12.99;100.00
47530;BME280;33272;51.922;7.730;2022-10-16T06:36:42;100503.59;;;13.04;100.00
47530;BME280;33272;51.922;7.730;2022-10-16T06:39:09;100517.50;;;13.07;100.00
47530;BME280;33272;51.922;7.730;2022-10-16T06:41:36;100522.81;;;13.10;100.00
47530;BME280;33272;51.922;7.730;2022-10-16T06:44:07;100525.59;;;13.13;100.00
47530;BME280;33272;51.922;7.730;2022-10-16T06:46:34;100534.53;;;13.20;100.00
47530;BME280;33272;51.922;7.730;2022-10-16T06:49:01;100528.72;;;13.22;100.00
47530;BME280;33272;51.922;7.730;2022-10-16T06:51:28;100535.13;;;13.29;100.00
47530;BME280;33272;51.922;7.730;2022-10-16T06:53:56;100532.75;;;13.32;100.00
47530;BME280;33272;51.922;7.730;2022-10-16T06:56:26;100532.13;;;13.36;100.00
47530;BME280;33272;51.922;7.730;2022-10-16T06:58:54;100535.88;;;13.41;100.00
47530;BME280;33272;51.922;7.730;2022-10-16T07:01:24;100545.63;;;13.47;100.00
47530;BME280;33272;51.922;7.730;2022-10-16T07:03:52;100540.94;;;13.55;100.00
47530;BME280;33272;51.922;7.730;2022-10-16T07:06:21;100539.78;;;13.64;100.00
47530;BME280;33272;51.922;7.730;2022-10-16T07:08:49;100542.69;;;13.71;100.00
47530;BME280;33272;51.922;7.730;2022-10-16T07:11:19;100558.31;;;13.74;100.00
47530;BME280;33272;51.922;7.730;2022-10-16T07:13:48;100551.75;;;13.79;100.00
47530;BME280;33272;51.922;7.730;2022-10-16T07:16:17;100559.38;;;13.77;100.00
47530;BME280;33272;51.922;7.730;2022-10-16T07:18:46;100567.03;;;13.76;100.00
47530;BME280;33272;51.922;7.730;2022-10-16T07:21:17;100572.25;;;13.77;100.00
47530;BME280;33272;51.922;7.730;2022-10-16T07:23:45;100582.53;;;13.77;100.00
47530;BME280;33272;51.922;7.730;2022-10-16T07:26:12;100585.91;;;13.76;100.00
47530;BME280;33272;51.922;7.730;2022-10-16T07:28:39;100596.03;;;13.73;100.00
47530;BME280;33272;51.922;7.730;2022-10-16T07:31:09;100598.69;;;13.75;100.00
47530;BME280;33272;51.922;7.730;2022-10-16T07:33:38;100606.41;;;13.75;100.00
47530;BME280;33272;51.922;7.730;2022-10-16T07:36:07;100609.88;;;13.75;100.00
47530;BME280;33272;51.922;7.730;2022-10-16T07:38:34;100612.63;;;13.78;100.00
47530;BME280;33272;51.922;7.730;2022-10-16T07:41:04;100616.34;;;13.83;100.00
47530;BME280;33272;51.922;7.730;2022-10-16T07:43:32;100627.50;;;13.84;100.00
47530;BME280;33272;51.922;7.730;2022-10-16T07:46:00;100627.59;;;13.85;100.00
47530;BME280;33272;51.922;7.730;2022-10-16T07:48:29;100627.34;;;13.96;100.00
47530;BME280;33272;51.922;7.730;2022-10-16T07:50:57;100621.84;;;14.04;100.00
47530;BME280;33272;51.922;7.730;2022-10-16T07:53:27;100630.00;;;14.12;100.00
47530;BME280;33272;51.922;7.730;2022-10-16T07:55:58;100634.09;;;14.23;100.00
47530;BME280;33272;51.922;7.730;2022-10-16T07:58:26;100642.88;;;14.27;100.00
47530;BME280;33272;51.922;7.730;2022-10-16T08:00:53;100640.03;;;14.37;100.00
47530;BME280;33272;51.922;7.730;2022-10-16T08:03:20;100645.69;;;14.46;100.00
47530;BME280;33272;51.922;7.730;2022-10-16T08:05:47;100650.34;;;14.52;100.00
47530;BME280;33272;51.922;7.730;2022-10-16T08:08:16;100656.91;;;14.62;100.00
47530;BME280;33272;51.922;7.730;2022-10-16T08:10:45;100666.75;;;14.69;100.00
47530;BME280;33272;51.922;7.730;2022-10-16T08:13:12;100670.47;;;14.74;100.00
47530;BME280;33272;51.922;7.730;2022-10-16T08:15:40;100670.13;;;14.82;100.00
47530;BME280;33272;51.922;7.730;2022-10-16T08:18:09;100673.75;;;14.86;100.00
47530;BME280;33272;51.922;7.730;2022-10-16T08:20:36;100688.09;;;14.97;100.00
47530;BME280;33272;51.922;7.730;2022-10-16T08:23:03;100687.38;;;15.00;100.00
47530;BME280;33272;51.922;7.730;2022-10-16T08:25:30;100680.00;;;15.06;100.00
47530;BME280;33272;51.922;7.730;2022-10-16T08:27:59;100686.13;;;15.08;100.00
47530;BME280;33272;51.922;7.730;2022-10-16T08:30:26;100674.22;;;15.10;100.00
47530;BME280;33272;51.922;7.730;2022-10-16T08:32:53;100686.53;;;15.16;100.00
47530;BME280;33272;51.922;7.730;2022-10-16T08:35:20;100690.31;;;15.22;100.00
47530;BME280;33272;51.922;7.730;2022-10-16T08:37:47;100687.53;;;15.34;100.00
47530;BME280;33272;51.922;7.730;2022-10-16T08:40:19;100698.91;;;15.38;100.00
47530;BME280;33272;51.922;7.730;2022-10-16T08:43:11;100697.63;;;15.29;100.00
47530;BME280;33272;51.922;7.730;2022-10-16T08:46:14;100700.94;;;15.43;100.00
47530;BME280;33272;51.922;7.730;2022-10-16T08:48:46;100699.22;;;15.44;100.00
47530;BME280;33272;51.922;7.730;2022-10-16T08:51:21;100697.47;;;15.43;100.00
47530;BME280;33272;51.922;7.730;2022-10-16T08:53:53;100714.16;;;15.49;100.00
47530;BME280;33272;51.922;7.730;2022-10-16T08:56:21;100703.84;;;15.66;100.00
47530;BME280;33272;51.922;7.730;2022-10-16T08:58:52;100722.91;;;15.68;100.00
47530;BME280;33272;51.922;7.730;2022-10-16T09:01:21;100723.56;;;15.80;100.00
47530;BME280;33272;51.922;7.730;2022-10-16T09:07:11;100720.97;;;15.96;100.00
47530;BME280;33272;51.922;7.730;2022-10-16T09:09:55;100728.72;;;15.96;100.00
47530;BME280;33272;51.922;7.730;2022-10-16T09:12:32;100729.50;;;16.12;100.00
47530;BME280;33272;51.922;7.730;2022-10-16T09:15:17;100740.00;;;16.15;100.00
47530;BME280;33272;51.922;7.730;2022-10-16T09:17:55;100748.22;;;16.24;100.00
47530;BME280;33272;51.922;7.730;2022-10-16T09:20:35;100742.94;;;16.39;100.00
47530;BME280;33272;51.922;7.730;2022-10-16T09:23:16;100745.41;;;16.54;100.00
47530;BME280;33272;51.922;7.730;2022-10-16T09:25:46;100742.09;;;16.56;100.00
47530;BME280;33272;51.922;7.730;2022-10-16T09:28:15;100740.19;;;16.70;100.00
47530;BME280;33272;51.922;7.730;2022-10-16T09:30:44;100758.78;;;16.63;100.00
47530;BME280;33272;51.922;7.730;2022-10-16T09:33:13;100748.66;;;16.67;100.00
47530;BME280;33272;51.922;7.730;2022-10-16T09:35:43;100753.44;;;16.76;100.00
47530;BME280;33272;51.922;7.730;2022-10-16T09:38:23;100757.50;;;16.55;100.00
47530;BME280;33272;51.922;7.730;2022-10-16T09:40:50;100758.34;;;16.72;100.00
47530;BME280;33272;51.922;7.730;2022-10-16T09:43:23;100742.31;;;16.61;100.00
47530;BME280;33272;51.922;7.730;2022-10-16T09:45:59;100749.13;;;16.59;100.00
47530;BME280;33272;51.922;7.730;2022-10-16T09:48:31;100759.44;;;16.59;100.00
47530;BME280;33272;51.922;7.730;2022-10-16T09:51:04;100769.84;;;16.60;100.00
47530;BME280;33272;51.922;7.730;2022-10-16T09:53:41;100760.25;;;16.58;100.00
47530;BME280;33272;51.922;7.730;2022-10-16T09:56:11;100763.50;;;16.54;100.00
47530;BME280;33272;51.922;7.730;2022-10-16T09:58:50;100769.13;;;16.63;100.00
47530;BME280;33272;51.922;7.730;2022-10-16T10:01:21;100764.31;;;16.71;100.00
47530;BME280;33272;51.922;7.730;2022-10-16T10:03:50;100774.00;;;16.91;100.00
47530;BME280;33272;51.922;7.730;2022-10-16T10:06:23;100781.09;;;17.13;100.00
47530;BME280;33272;51.922;7.730;2022-10-16T10:09:00;100774.13;;;17.30;100.00
47530;BME280;33272;51.922;7.730;2022-10-16T10:11:48;100784.22;;;17.43;100.00
47530;BME280;33272;51.922;7.730;2022-10-16T10:14:22;100789.16;;;17.37;100.00
47530;BME280;33272;51.922;7.730;2022-10-16T10:16:51;100788.63;;;17.44;100.00
47530;BME280;33272;51.922;7.730;2022-10-16T10:19:22;100789.34;;;17.24;100.00
47530;BME280;33272;51.922;7.730;2022-10-16T10:21:50;100792.63;;;17.37;100.00
47530;BME280;33272;51.922;7.730;2022-10-16T10:24:19;100788.38;;;17.40;100.00
47530;BME280;33272;51.922;7.730;2022-10-16T10:26:54;100791.69;;;17.55;100.00
47530;BME280;33272;51.922;7.730;2022-10-16T10:29:39;100803.78;;;17.74;100.00
47530;BME280;33272;51.922;7.730;2022-10-16T10:32:23;100810.25;;;18.01;100.00
47530;BME280;33272;51.922;7.730;2022-10-16T10:35:14;100814.69;;;18.23;100.00
47530;BME280;33272;51.922;7.730;2022-10-16T10:38:01;100813.44;;;18.35;100.00
47530;BME280;33272;51.922;7.730;2022-10-16T10:40:45;100808.44;;;18.59;97.99
47530;BME280;33272;51.922;7.730;2022-10-16T10:43:29;100805.22;;;18.64;96.66
47530;BME280;33272;51.922;7.730;2022-10-16T10:46:04;100807.91;;;18.46;96.97
47530;BME280;33272;51.922;7.730;2022-10-16T10:48:55;100811.53;;;17.92;94.02
47530;BME280;33272;51.922;7.730;2022-10-16T10:51:36;100808.59;;;17.84;97.52
47530;BME280;33272;51.922;7.730;2022-10-16T10:54:16;100812.59;;;17.77;98.50
47530;BME280;33272;51.922;7.730;2022-10-16T10:56:57;100818.44;;;17.55;99.71
47530;BME280;33272;51.922;7.730;2022-10-16T10:59:40;100812.97;;;17.49;98.60
47530;BME280;33272;51.922;7.730;2022-10-16T11:02:21;100814.19;;;17.56;100.00
47530;BME280;33272;51.922;7.730;2022-10-16T11:05:32;100812.59;;;17.77;100.00
47530;BME280;33272;51.922;7.730;2022-10-16T11:08:11;100816.59;;;18.08;100.00
47530;BME280;33272;51.922;7.730;2022-10-16T11:10:47;100822.59;;;18.26;100.00
47530;BME280;33272;51.922;7.730;2022-10-16T11:13:30;100818.53;;;18.32;100.00
47530;BME280;33272;51.922;7.730;2022-10-16T11:16:02;100817.69;;;18.33;99.89
47530;BME280;33272;51.922;7.730;2022-10-16T11:18:40;100813.78;;;18.42;94.71
47530;BME280;33272;51.922;7.730;2022-10-16T11:21:14;100823.69;;;18.51;99.28
47530;BME280;33272;51.922;7.730;2022-10-16T11:23:49;100823.03;;;18.57;98.37
47530;BME280;33272;51.922;7.730;2022-10-16T11:26:21;100827.09;;;18.71;99.17
47530;BME280;33272;51.922;7.730;2022-10-16T11:28:53;100820.47;;;18.76;96.55
47530;BME280;33272;51.922;7.730;2022-10-16T11:31:28;100822.59;;;18.86;93.99
47530;BME280;33272;51.922;7.730;2022-10-16T11:34:04;100826.25;;;18.91;98.10
47530;BME280;33272;51.922;7.730;2022-10-16T11:36:39;100825.63;;;18.97;97.46
47530;BME280;33272;51.922;7.730;2022-10-16T11:39:21;100824.03;;;19.01;92.98
47530;BME280;33272;51.922;7.730;2022-10-16T11:41:51;100830.44;;;19.09;97.60
47530;BME280;33272;51.922;7.730;2022-10-16T11:44:41;100828.53;;;18.84;89.73
47530;BME280;33272;51.922;7.730;2022-10-16T11:47:26;100842.47;;;19.07;91.25
47530;BME280;33272;51.922;7.730;2022-10-16T11:49:59;100834.75;;;19.08;90.49
47530;BME280;33272;51.922;7.730;2022-10-16T11:52:36;100835.69;;;19.10;87.01
47530;BME280;33272;51.922;7.730;2022-10-16T11:55:14;100839.00;;;19.27;89.06
47530;BME280;33272;51.922;7.730;2022-10-16T11:57:48;100838.41;;;19.34;92.85
47530;BME280;33272;51.922;7.730;2022-10-16T12:00:23;100841.88;;;19.35;91.06
47530;BME280;33272;51.922;7.730;2022-10-16T12:03:00;100847.81;;;19.32;87.04
47530;BME280;33272;51.922;7.730;2022-10-16T12:05:46;100839.38;;;19.15;89.01
47530;BME280;33272;51.922;7.730;2022-10-16T12:08:18;100836.06;;;19.19;93.99
47530;BME280;33272;51.922;7.730;2022-10-16T12:10:47;100843.84;;;19.40;93.87
47530;BME280;33272;51.922;7.730;2022-10-16T12:13:35;100839.47;;;19.39;86.21
47530;BME280;33272;51.922;7.730;2022-10-16T12:16:23;100846.97;;;19.54;87.35
47530;BME280;33272;51.922;7.730;2022-10-16T12:19:10;100848.69;;;19.75;89.34
47530;BME280;33272;51.922;7.730;2022-10-16T12:21:38;100844.88;;;19.89;91.61
47530;BME280;33272;51.922;7.730;2022-10-16T12:24:06;100846.22;;;20.02;91.85
47530;BME280;33272;51.922;7.730;2022-10-16T12:26:47;100840.38;;;20.07;91.33
47530;BME280;33272;51.922;7.730;2022-10-16T12:29:26;100853.00;;;20.21;88.23
47530;BME280;33272;51.922;7.730;2022-10-16T12:31:56;100853.06;;;20.22;89.88
47530;BME280;33272;51.922;7.730;2022-10-16T12:34:28;100861.19;;;20.31;89.97
47530;BME280;33272;51.922;7.730;2022-10-16T12:36:56;100857.47;;;20.49;89.71
47530;BME280;33272;51.922;7.730;2022-10-16T12:39:36;100862.25;;;20.60;87.70
47530;BME280;33272;51.922;7.730;2022-10-16T12:42:17;100860.50;;;20.59;86.46
47530;BME280;33272;51.922;7.730;2022-10-16T12:44:46;100858.53;;;20.52;88.02
47530;BME280;33272;51.922;7.730;2022-10-16T12:47:22;100874.31;;;20.58;84.49
47530;BME280;33272;51.922;7.730;2022-10-16T12:49:51;100862.38;;;20.64;85.74
47530;BME280;33272;51.922;7.730;2022-10-16T12:52:37;100871.63;;;20.55;80.54
47530;BME280;33272;51.922;7.730;2022-10-16T12:55:15;100876.72;;;20.52;81.74
47530;BME280;33272;51.922;7.730;2022-10-16T12:58:00;100875.00;;;20.53;81.13
47530;BME280;33272;51.922;7.730;2022-10-16T13:00:42;100871.38;;;20.49;83.80
47530;BME280;33272;51.922;7.730;2022-10-16T13:04:27;100877.59;;;20.06;80.26
47530;BME280;33272;51.922;7.730;2022-10-16T13:07:16;100877.72;;;20.09;83.93